ExpreSS Skopelitis — SW3130 — position and weather

sailwx.info

Track history (hours):
 
Tides and Currents Weather Stations Pressure Air Temp Water Temp Dewpoint Dewpoint Depression Visibility Wind Speed Wind Dir Waves Ship Positions

ExpreSS Skopelitis

Last reported at 2018-Jun-19 11:50 UTC. Time now 2018-Jun-19 22:20 UTC.
Position N 36°59' E 025°22'.

Length 45 m; draft 2.4 m.

Type: Passenger vessel. MMSI: 237029400.

Date/timePositionNaut miles runAvg speedWind from/ knotsBaromVisibWave heightAir tempDewpointWater temp
2018-Jun-19 11:50N 36°59' E 025°22'412.3
2018-Jun-19 11:30N 37°03' E 025°20'4 7.2
2018-Jun-19 11:00N 37°06' E 025°22'0 0.0
2018-Jun-19 10:30N 37°06' E 025°22'0 0.0
2018-Jun-19 10:00N 37°06' E 025°22'0 0.0
2018-Jun-19 09:30N 37°06' E 025°22'0 0.0
2018-Jun-19 09:00N 37°06' E 025°22'0 0.0
2018-Jun-19 08:30N 37°06' E 025°22'0 0.0
2018-Jun-19 08:00N 37°06' E 025°22'3 5.8
2018-Jun-19 07:30N 37°04' E 025°20'5 0.3
2018-Jun-18 11:44N 36°59' E 025°22'312.4
2018-Jun-18 11:30N 37°02' E 025°21'5 9.4
2018-Jun-18 11:00N 37°06' E 025°22'0 0.0
2018-Jun-18 10:30N 37°06' E 025°22'0 0.0
2018-Jun-18 10:00N 37°06' E 025°22'0 0.0
2018-Jun-18 09:30N 37°06' E 025°22'0 0.9
2018-Jun-18 09:00N 37°06' E 025°22'510.0
2018-Jun-18 08:30N 37°01' E 025°21'2 0.0
2018-Jun-16 11:49N 36°59' E 025°22'411.7
2018-Jun-16 11:30N 37°03' E 025°21'4 7.9
2018-Jun-16 11:00N 37°06' E 025°22'0 0.0
2018-Jun-16 10:30N 37°06' E 025°22'0 0.0
2018-Jun-16 10:00N 37°06' E 025°22'0 0.0
2018-Jun-16 09:30N 37°06' E 025°22'3 6.4
2018-Jun-16 09:00N 37°04' E 025°20'5 0.2
2018-Jun-15 11:51N 36°59' E 025°22'412.0
2018-Jun-15 11:30N 37°03' E 025°20'4 7.5
2018-Jun-15 11:00N 37°06' E 025°22'0 0.0
2018-Jun-15 10:30N 37°06' E 025°22'0 0.0
2018-Jun-15 10:00N 37°06' E 025°22'0 0.0
2018-Jun-15 09:30N 37°06' E 025°22'0 0.0
2018-Jun-15 09:00N 37°06' E 025°22'0 0.0
2018-Jun-15 08:30N 37°06' E 025°22'0 0.0
2018-Jun-15 08:00N 37°06' E 025°22'3 6.7
2018-Jun-15 07:30N 37°03' E 025°20'4 0.2
2018-Jun-14 11:45N 36°59' E 025°22'312.1
2018-Jun-14 11:30N 37°02' E 025°21'5 9.2
2018-Jun-14 11:00N 37°06' E 025°22'0 0.0
2018-Jun-14 10:30N 37°06' E 025°22'0 0.0
2018-Jun-14 10:00N 37°06' E 025°22'0 0.0
2018-Jun-14 09:30N 37°06' E 025°22'0 0.0
2018-Jun-14 09:00N 37°06' E 025°22'0 0.0
2018-Jun-14 08:30N 37°06' E 025°22'0 0.0
2018-Jun-14 08:00N 37°06' E 025°22'3 6.5
2018-Jun-14 07:30N 37°04' E 025°20'5 0.2
2018-Jun-13 11:49N 36°59' E 025°22'412.1
2018-Jun-13 11:30N 37°03' E 025°21'4 8.0
2018-Jun-13 11:00N 37°06' E 025°22'0 0.0
2018-Jun-13 10:30N 37°06' E 025°22'0 0.0
2018-Jun-13 10:00N 37°06' E 025°22'0 0.0
2018-Jun-13 09:30N 37°06' E 025°22'0 0.0
2018-Jun-13 09:00N 37°06' E 025°22'4 8.6
2018-Jun-13 08:30N 37°02' E 025°21'3 0.2
2018-Jun-12 11:47N 36°59' E 025°22'412.2
2018-Jun-12 11:29N 37°03' E 025°20'4 8.3
2018-Jun-12 11:00N 37°06' E 025°22'0 0.0
2018-Jun-12 10:30N 37°06' E 025°22'0 0.0
2018-Jun-12 10:00N 37°06' E 025°22'0 0.0
2018-Jun-12 09:30N 37°06' E 025°22'0 0.0
2018-Jun-12 09:00N 37°06' E 025°22'0 0.0
2018-Jun-12 08:30N 37°06' E 025°22'0 0.0
2018-Jun-12 08:00N 37°06' E 025°22'3 6.7
2018-Jun-12 07:30N 37°03' E 025°20'4 0.2
2018-Jun-11 11:49N 36°59' E 025°22'412.6
2018-Jun-11 11:30N 37°03' E 025°20'4 7.5
2018-Jun-11 11:00N 37°06' E 025°22'0 0.0
2018-Jun-11 10:30N 37°06' E 025°22'0 0.0
2018-Jun-11 10:00N 37°06' E 025°22'0 0.0
2018-Jun-11 09:30N 37°06' E 025°22'0 0.5
2018-Jun-11 09:00N 37°06' E 025°22'5 9.4
2018-Jun-11 08:30N 37°02' E 025°21'  
Track history (hours):
 
Tides and Currents Weather Stations Pressure Air Temp Water Temp Dewpoint Dewpoint Depression Visibility Wind Speed Wind Dir Waves Ship Positions

ExpreSS Skopelitis

Last reported at 2018-Jun-19 11:50 UTC. Time now 2018-Jun-19 22:20 UTC.
Position N 36°59' E 025°22'.

Length 45 m; draft 2.4 m.

Type: Passenger vessel. MMSI: 237029400.

Date/timePositionNaut miles runAvg speedWind from/ knotsBaromVisibWave heightAir tempDewpointWater temp
2018-Jun-19 11:50N 36°59' E 025°22'412.3
2018-Jun-19 11:30N 37°03' E 025°20'4 7.2
2018-Jun-19 11:00N 37°06' E 025°22'0 0.0
2018-Jun-19 10:30N 37°06' E 025°22'0 0.0
2018-Jun-19 10:00N 37°06' E 025°22'0 0.0
2018-Jun-19 09:30N 37°06' E 025°22'0 0.0
2018-Jun-19 09:00N 37°06' E 025°22'0 0.0
2018-Jun-19 08:30N 37°06' E 025°22'0 0.0
2018-Jun-19 08:00N 37°06' E 025°22'3 5.8
2018-Jun-19 07:30N 37°04' E 025°20'5 0.3
2018-Jun-18 11:44N 36°59' E 025°22'312.4
2018-Jun-18 11:30N 37°02' E 025°21'5 9.4
2018-Jun-18 11:00N 37°06' E 025°22'0 0.0
2018-Jun-18 10:30N 37°06' E 025°22'0 0.0
2018-Jun-18 10:00N 37°06' E 025°22'0 0.0
2018-Jun-18 09:30N 37°06' E 025°22'0 0.9
2018-Jun-18 09:00N 37°06' E 025°22'510.0
2018-Jun-18 08:30N 37°01' E 025°21'2 0.0
2018-Jun-16 11:49N 36°59' E 025°22'411.7
2018-Jun-16 11:30N 37°03' E 025°21'4 7.9
2018-Jun-16 11:00N 37°06' E 025°22'0 0.0
2018-Jun-16 10:30N 37°06' E 025°22'0 0.0
2018-Jun-16 10:00N 37°06' E 025°22'0 0.0
2018-Jun-16 09:30N 37°06' E 025°22'3 6.4
2018-Jun-16 09:00N 37°04' E 025°20'5 0.2
2018-Jun-15 11:51N 36°59' E 025°22'412.0
2018-Jun-15 11:30N 37°03' E 025°20'4 7.5
2018-Jun-15 11:00N 37°06' E 025°22'0 0.0
2018-Jun-15 10:30N 37°06' E 025°22'0 0.0
2018-Jun-15 10:00N 37°06' E 025°22'0 0.0
2018-Jun-15 09:30N 37°06' E 025°22'0 0.0
2018-Jun-15 09:00N 37°06' E 025°22'0 0.0
2018-Jun-15 08:30N 37°06' E 025°22'0 0.0
2018-Jun-15 08:00N 37°06' E 025°22'3 6.7
2018-Jun-15 07:30N 37°03' E 025°20'4 0.2
2018-Jun-14 11:45N 36°59' E 025°22'312.1
2018-Jun-14 11:30N 37°02' E 025°21'5 9.2
2018-Jun-14 11:00N 37°06' E 025°22'0 0.0
2018-Jun-14 10:30N 37°06' E 025°22'0 0.0
2018-Jun-14 10:00N 37°06' E 025°22'0 0.0
2018-Jun-14 09:30N 37°06' E 025°22'0 0.0
2018-Jun-14 09:00N 37°06' E 025°22'0 0.0
2018-Jun-14 08:30N 37°06' E 025°22'0 0.0
2018-Jun-14 08:00N 37°06' E 025°22'3 6.5
2018-Jun-14 07:30N 37°04' E 025°20'5 0.2
2018-Jun-13 11:49N 36°59' E 025°22'412.1
2018-Jun-13 11:30N 37°03' E 025°21'4 8.0
2018-Jun-13 11:00N 37°06' E 025°22'0 0.0
2018-Jun-13 10:30N 37°06' E 025°22'0 0.0
2018-Jun-13 10:00N 37°06' E 025°22'0 0.0
2018-Jun-13 09:30N 37°06' E 025°22'0 0.0
2018-Jun-13 09:00N 37°06' E 025°22'4 8.6
2018-Jun-13 08:30N 37°02' E 025°21'3 0.2
2018-Jun-12 11:47N 36°59' E 025°22'412.2
2018-Jun-12 11:29N 37°03' E 025°20'4 8.3
2018-Jun-12 11:00N 37°06' E 025°22'0 0.0
2018-Jun-12 10:30N 37°06' E 025°22'0 0.0
2018-Jun-12 10:00N 37°06' E 025°22'0 0.0
2018-Jun-12 09:30N 37°06' E 025°22'0 0.0
2018-Jun-12 09:00N 37°06' E 025°22'0 0.0
2018-Jun-12 08:30N 37°06' E 025°22'0 0.0
2018-Jun-12 08:00N 37°06' E 025°22'3 6.7
2018-Jun-12 07:30N 37°03' E 025°20'4 0.2
2018-Jun-11 11:49N 36°59' E 025°22'412.6
2018-Jun-11 11:30N 37°03' E 025°20'4 7.5
2018-Jun-11 11:00N 37°06' E 025°22'0 0.0
2018-Jun-11 10:30N 37°06' E 025°22'0 0.0
2018-Jun-11 10:00N 37°06' E 025°22'0 0.0
2018-Jun-11 09:30N 37°06' E 025°22'0 0.5
2018-Jun-11 09:00N 37°06' E 025°22'5 9.4
2018-Jun-11 08:30N 37°02' E 025°21'  

Dump ship's entire track history